createdAt,value
2018-09-22T10:03:16.181Z,50.47
2018-09-22T10:05:44.483Z,262.03
2018-09-22T10:08:12.602Z,151.90
2018-09-22T10:10:40.775Z,153.83
2018-09-22T10:13:08.946Z,162.13
2018-09-22T10:15:36.690Z,23.93
2018-09-22T10:18:04.589Z,25.33
2018-09-22T10:20:32.852Z,31.00
2018-09-22T10:23:00.718Z,97.83
2018-09-22T10:25:28.451Z,26.00
2018-09-22T10:27:56.227Z,45.20
2018-09-22T10:30:24.316Z,114.47
2018-09-22T10:32:52.485Z,44.83
2018-09-22T10:35:20.350Z,19.07
2018-09-22T10:37:48.080Z,22.10
2018-09-22T10:40:16.149Z,35.60
2018-09-22T10:42:44.358Z,34.53
2018-09-22T10:45:12.422Z,27.07
2018-09-22T10:47:40.577Z,46.80
2018-09-22T10:50:08.513Z,30.30
2018-09-22T10:52:36.485Z,20.57
2018-09-22T10:55:04.275Z,25.93
2018-09-22T10:57:32.049Z,19.80
2018-09-22T10:59:59.778Z,25.03
2018-09-22T11:02:27.526Z,26.23
2018-09-22T11:04:55.293Z,21.50
2018-09-22T11:07:23.055Z,23.23
2018-09-22T11:09:50.793Z,18.60
2018-09-22T11:12:18.538Z,18.10
2018-09-22T11:14:46.253Z,13.93
2018-09-22T11:17:13.974Z,18.00
2018-09-22T11:19:41.676Z,15.70
2018-09-22T11:22:09.426Z,21.23
2018-09-22T11:24:37.135Z,19.03
2018-09-22T11:27:04.992Z,19.43
2018-09-22T11:29:32.729Z,17.80
2018-09-22T11:32:00.438Z,13.93
2018-09-22T11:34:28.209Z,17.60
2018-09-22T11:36:55.934Z,11.93
2018-09-22T11:39:23.642Z,14.33
2018-09-22T11:41:51.358Z,16.13
2018-09-22T11:44:19.165Z,15.10
2018-09-22T11:46:46.894Z,16.50
2018-09-22T11:49:14.597Z,14.00
2018-09-22T11:51:42.324Z,14.40
2018-09-22T11:54:10.050Z,12.40
2018-09-22T11:56:37.775Z,12.00
2018-09-22T11:59:05.510Z,10.43
2018-09-22T12:01:33.253Z,10.53
2018-09-22T12:04:00.988Z,11.87
2018-09-22T12:06:28.741Z,12.77
2018-09-22T12:08:56.472Z,18.10
2018-09-22T12:11:24.192Z,16.50
2018-09-22T12:13:51.923Z,15.20
2018-09-22T12:16:19.648Z,13.83
2018-09-22T12:18:47.394Z,13.63
2018-09-22T12:21:15.152Z,14.10
2018-09-22T12:23:42.911Z,12.57
2018-09-22T12:26:10.642Z,12.10
2018-09-22T12:28:38.369Z,10.60
2018-09-22T12:31:06.106Z,13.57
2018-09-22T12:33:33.877Z,16.57
2018-09-22T12:36:01.717Z,10.53
2018-09-22T12:38:29.434Z,15.47
2018-09-22T12:40:57.155Z,14.20
2018-09-22T12:43:24.874Z,11.93
2018-09-22T12:45:52.621Z,9.93
2018-09-22T12:48:20.334Z,10.73
2018-09-22T12:50:48.094Z,10.30
2018-09-22T12:53:15.825Z,10.97
2018-09-22T12:55:43.583Z,12.50
2018-09-22T12:58:11.330Z,6.90
2018-09-22T13:00:39.093Z,12.13
2018-09-22T13:03:06.866Z,9.97
2018-09-22T13:05:34.598Z,13.90
2018-09-22T13:08:02.363Z,13.00
2018-09-22T13:10:30.092Z,11.87
2018-09-22T13:12:57.826Z,8.63
2018-09-22T13:15:25.570Z,11.23
2018-09-22T13:17:53.282Z,12.47
2018-09-22T13:20:21.104Z,10.83
2018-09-22T13:22:48.758Z,9.30
2018-09-22T13:25:16.483Z,10.60
2018-09-22T13:27:44.210Z,12.40
2018-09-22T13:30:11.949Z,8.37
2018-09-22T13:32:39.661Z,9.50
2018-09-22T13:35:07.713Z,10.60
2018-09-22T13:37:35.432Z,8.10
2018-09-22T13:40:03.223Z,11.03
2018-09-22T13:42:30.993Z,6.90
2018-09-22T13:44:58.742Z,7.93
2018-09-22T13:47:26.497Z,7.10
2018-09-22T13:49:54.219Z,8.40
2018-09-22T13:52:21.957Z,6.30
2018-09-22T13:54:49.689Z,7.93
2018-09-22T13:57:17.426Z,7.20
2018-09-22T13:59:45.156Z,11.17
2018-09-22T14:02:12.907Z,6.30
2018-09-22T14:04:40.629Z,8.30
2018-09-22T14:07:08.366Z,9.07
2018-09-22T14:09:36.089Z,8.10
2018-09-22T14:12:03.800Z,6.63
2018-09-22T14:14:31.550Z,9.87
2018-09-22T14:16:59.299Z,8.10
2018-09-22T14:19:27.018Z,6.43
2018-09-22T14:21:54.774Z,6.83
2018-09-22T14:24:22.573Z,5.03
2018-09-22T14:26:50.268Z,6.23
2018-09-22T14:29:18.076Z,12.67
2018-09-22T14:31:45.849Z,10.00
2018-09-22T14:34:13.597Z,9.60
2018-09-22T14:36:41.319Z,7.00
2018-09-22T14:39:09.081Z,8.23
2018-09-22T14:41:36.798Z,5.70
2018-09-22T14:44:04.518Z,7.80
2018-09-22T14:46:32.238Z,8.53
2018-09-22T14:48:59.964Z,6.70
2018-09-22T14:51:27.718Z,7.53
2018-09-22T14:53:55.434Z,8.87
2018-09-22T14:56:23.164Z,5.03
2018-09-22T14:58:50.930Z,9.37
2018-09-22T15:01:18.674Z,7.67
2018-09-22T15:03:46.461Z,6.27
2018-09-22T15:06:14.180Z,6.47
2018-09-22T15:08:41.893Z,7.60
2018-09-22T15:11:09.654Z,6.83
2018-09-22T15:13:37.390Z,8.03
2018-09-22T15:16:05.114Z,7.60
2018-09-22T15:18:32.841Z,8.33
2018-09-22T15:21:00.553Z,9.23
2018-09-22T15:23:28.265Z,7.00
2018-09-22T15:25:56.027Z,8.20
2018-09-22T15:28:23.777Z,7.30
2018-09-22T15:30:51.549Z,7.10
2018-09-22T15:33:19.294Z,7.30
2018-09-22T15:35:47.097Z,8.80
2018-09-22T15:38:14.826Z,9.40
2018-09-22T15:40:42.546Z,7.77
2018-09-22T15:43:10.292Z,8.53
2018-09-22T15:45:38.068Z,8.63
2018-09-22T15:48:05.858Z,11.53
2018-09-22T15:50:33.563Z,10.27
2018-09-22T15:53:01.322Z,13.00
2018-09-22T15:55:29.058Z,11.00
2018-09-22T15:57:56.751Z,10.17
2018-09-22T16:00:26.787Z,9.50
2018-09-22T16:02:54.498Z,8.40
2018-09-22T16:05:22.198Z,8.30
2018-09-22T16:07:49.966Z,9.43
2018-09-22T16:10:17.710Z,9.03
2018-09-22T16:12:45.431Z,8.17
2018-09-22T16:15:13.141Z,13.70
2018-09-22T16:17:40.857Z,10.37
2018-09-22T16:20:08.592Z,10.27
2018-09-22T16:22:36.294Z,15.70
2018-09-22T16:25:04.115Z,13.33
2018-09-22T16:27:31.823Z,13.33
2018-09-22T16:29:59.530Z,10.70
2018-09-22T16:32:27.609Z,10.37
2018-09-22T16:34:55.346Z,12.53
2018-09-22T16:37:23.095Z,11.47
2018-09-22T16:39:50.875Z,15.60
2018-09-22T16:42:18.611Z,12.37
2018-09-22T16:44:46.359Z,13.03
2018-09-22T16:47:14.087Z,13.87
2018-09-22T16:49:41.789Z,12.43
2018-09-22T16:52:09.503Z,14.10
2018-09-22T16:54:37.218Z,11.97
2018-09-22T16:57:04.987Z,16.23
2018-09-22T16:59:32.773Z,17.30
2018-09-22T17:03:03.675Z,18.47
2018-09-22T17:05:31.406Z,19.87
2018-09-22T17:07:59.145Z,21.30
2018-09-22T17:10:26.871Z,24.70
2018-09-22T17:12:54.631Z,18.97
2018-09-22T17:15:22.345Z,18.77
2018-09-22T17:17:50.146Z,18.90
2018-09-22T17:20:17.895Z,23.80
2018-09-22T17:22:45.608Z,22.20
2018-09-22T17:25:13.378Z,19.93
2018-09-22T17:27:41.147Z,24.83
2018-09-22T17:30:08.889Z,21.23
2018-09-22T17:32:36.621Z,21.03
2018-09-22T17:35:04.427Z,18.03
2018-09-22T17:37:32.130Z,24.30
2018-09-22T17:39:59.842Z,22.73
2018-09-22T17:42:27.582Z,26.03
2018-09-22T17:44:55.327Z,23.60
2018-09-22T17:47:23.063Z,24.63
2018-09-22T17:49:50.814Z,23.80
2018-09-22T17:52:18.556Z,25.60
2018-09-22T17:54:46.272Z,24.77
2018-09-22T17:57:14.005Z,27.13
2018-09-22T17:59:41.795Z,28.97
2018-09-22T18:02:09.712Z,26.50
2018-09-22T18:04:37.461Z,20.33
2018-09-22T18:07:05.320Z,28.20
2018-09-22T18:09:33.065Z,23.00
2018-09-22T18:12:00.823Z,26.87
2018-09-22T18:14:29.409Z,21.27
2018-09-22T18:16:57.149Z,19.20
2018-09-22T18:19:24.981Z,21.93
2018-09-22T18:21:52.937Z,24.70
2018-09-22T18:24:20.781Z,18.53
2018-09-22T18:26:48.502Z,25.60
2018-09-22T18:29:16.230Z,20.40
2018-09-22T18:31:43.994Z,21.90
2018-09-22T18:34:12.158Z,21.23
2018-09-22T18:36:39.933Z,19.60
2018-09-22T18:39:08.146Z,18.77
2018-09-22T18:41:36.141Z,18.93
2018-09-22T18:44:04.170Z,18.13
2018-09-22T18:46:31.933Z,17.03
2018-09-22T18:48:59.706Z,13.23
2018-09-22T18:51:27.425Z,14.60
2018-09-22T18:53:55.139Z,14.70
2018-09-22T18:56:22.893Z,13.20
2018-09-22T18:58:50.678Z,15.60
2018-09-22T19:01:18.632Z,12.97
2018-09-22T19:03:46.393Z,12.27
2018-09-22T19:06:14.146Z,11.87
2018-09-22T19:08:41.860Z,14.43
2018-09-22T19:11:09.666Z,11.13
2018-09-22T19:13:41.898Z,12.50
2018-09-22T19:16:15.033Z,13.10
2018-09-22T19:18:48.494Z,10.17
2018-09-22T19:21:23.437Z,11.33
2018-09-22T19:23:58.776Z,12.20
2018-09-22T19:26:31.929Z,15.77
2018-09-22T19:29:17.126Z,13.40
2018-09-22T19:31:50.442Z,11.73
2018-09-22T19:34:22.379Z,16.03
2018-09-22T19:36:55.242Z,10.87
2018-09-22T19:39:54.750Z,11.93
2018-09-22T19:42:30.003Z,12.50
2018-09-22T19:45:04.978Z,11.63
2018-09-22T19:47:56.850Z,12.93
2018-09-22T19:50:28.909Z,11.10
2018-09-22T19:52:57.719Z,14.40
2018-09-22T19:55:25.453Z,9.73
2018-09-22T19:57:53.215Z,13.97
2018-09-22T20:00:20.933Z,12.93
2018-09-22T20:02:48.668Z,13.07
2018-09-22T20:05:16.394Z,9.40
2018-09-22T20:07:44.102Z,11.40
2018-09-22T20:10:11.823Z,10.37
2018-09-22T20:12:39.582Z,9.93
2018-09-22T20:15:07.318Z,10.70
2018-09-22T20:17:35.095Z,11.87
2018-09-22T20:20:02.818Z,16.17
2018-09-22T20:22:30.573Z,12.20
2018-09-22T20:24:58.296Z,13.53
2018-09-22T20:27:26.047Z,13.07
2018-09-22T20:29:53.766Z,11.57
2018-09-22T20:32:21.578Z,14.30
2018-09-22T20:34:49.287Z,9.77
2018-09-22T20:37:17.020Z,10.63
2018-09-22T20:39:44.766Z,10.80
2018-09-22T20:42:12.482Z,14.63
2018-09-22T20:44:40.203Z,12.83
2018-09-22T20:47:07.934Z,12.50
2018-09-22T20:49:35.661Z,9.80
2018-09-22T20:52:03.369Z,11.90
2018-09-22T20:54:31.083Z,11.90
2018-09-22T20:56:58.810Z,10.20
2018-09-22T20:59:26.528Z,12.73
2018-09-22T21:01:54.309Z,11.70
2018-09-22T21:04:22.034Z,9.93
2018-09-22T21:06:49.742Z,10.10
2018-09-22T21:09:17.451Z,11.93
2018-09-22T21:11:45.167Z,11.00
2018-09-22T21:14:12.900Z,12.13
2018-09-22T21:16:40.602Z,8.50
2018-09-22T21:19:08.402Z,8.70
2018-09-22T21:21:36.126Z,11.70
2018-09-22T21:24:03.873Z,13.10
2018-09-22T21:26:31.615Z,10.17
2018-09-22T21:28:59.335Z,10.13
2018-09-22T21:31:27.058Z,9.07
2018-09-22T21:33:54.802Z,14.47
2018-09-22T21:36:22.513Z,10.30
2018-09-22T21:38:50.241Z,10.43
2018-09-22T21:41:17.943Z,12.37
2018-09-22T21:43:45.730Z,9.37
2018-09-22T21:46:13.437Z,9.43
2018-09-22T21:48:41.159Z,8.43
2018-09-22T21:51:08.880Z,9.17
2018-09-22T21:53:36.715Z,10.07
2018-09-22T21:56:04.466Z,8.63
2018-09-22T21:58:32.194Z,10.70
2018-09-22T22:00:59.941Z,12.17
2018-09-22T22:03:27.713Z,10.63
2018-09-22T22:05:55.476Z,10.23
2018-09-22T22:08:23.282Z,10.37
2018-09-22T22:10:51.043Z,9.47
2018-09-22T22:13:18.805Z,8.27
2018-09-22T22:15:46.608Z,10.37
2018-09-22T22:18:14.408Z,12.03
2018-09-22T22:20:42.173Z,9.70
2018-09-22T22:23:10.022Z,7.93
2018-09-22T22:25:37.927Z,7.37
2018-09-22T22:28:05.942Z,9.30
2018-09-22T22:30:33.720Z,8.80
2018-09-22T22:33:01.468Z,8.97
2018-09-22T22:35:29.233Z,9.70
2018-09-22T22:37:56.985Z,15.03
2018-09-22T22:40:24.755Z,9.13
2018-09-22T22:42:52.527Z,11.37
2018-09-22T22:45:20.336Z,14.67
2018-09-22T22:47:49.971Z,7.23
2018-09-22T22:50:20.267Z,7.53
2018-09-22T22:52:48.644Z,7.73
2018-09-22T22:55:16.384Z,10.43
2018-09-22T22:57:44.078Z,8.03
2018-09-22T23:00:11.800Z,7.43
2018-09-22T23:02:40.068Z,7.50
2018-09-22T23:05:07.790Z,8.57
2018-09-22T23:07:35.500Z,8.63
2018-09-22T23:10:03.265Z,10.73
2018-09-22T23:12:30.974Z,9.93
2018-09-22T23:14:59.672Z,9.83
2018-09-22T23:17:27.394Z,7.90
2018-09-22T23:19:55.136Z,8.43
2018-09-22T23:22:22.838Z,8.67
2018-09-22T23:24:50.578Z,8.07
2018-09-22T23:27:18.326Z,10.67
2018-09-22T23:29:46.061Z,9.73
2018-09-22T23:32:13.906Z,8.20
2018-09-22T23:34:41.707Z,7.37
2018-09-22T23:37:09.519Z,6.77
2018-09-22T23:39:37.228Z,8.57
2018-09-22T23:42:04.971Z,8.67
2018-09-22T23:44:32.689Z,9.97
2018-09-22T23:47:00.423Z,7.30
2018-09-22T23:49:28.124Z,10.83
2018-09-22T23:51:56.164Z,7.43
2018-09-22T23:54:23.955Z,10.90
2018-09-22T23:56:52.157Z,7.57
2018-09-22T23:59:20.230Z,10.57
